sensor_id;sensor_type;location;lat;lon;timestamp;P1;durP1;ratioP1;P2;durP2;ratioP2
82396;SDS011;72034;51.426;7.534;2023-12-14T05:02:49;19.40;;;12.23;;
82396;SDS011;72034;51.426;7.534;2023-12-14T05:05:24;18.50;;;11.85;;
82396;SDS011;72034;51.426;7.534;2023-12-14T05:07:52;18.17;;;11.80;;
82396;SDS011;72034;51.426;7.534;2023-12-14T05:10:26;15.80;;;10.73;;
82396;SDS011;72034;51.426;7.534;2023-12-14T05:12:55;15.95;;;10.13;;
82396;SDS011;72034;51.426;7.534;2023-12-14T05:15:58;16.10;;;9.80;;
82396;SDS011;72034;51.426;7.534;2023-12-14T05:18:27;15.05;;;10.50;;
82396;SDS011;72034;51.426;7.534;2023-12-14T05:21:33;18.35;;;9.73;;
82396;SDS011;72034;51.426;7.534;2023-12-14T05:24:04;16.17;;;9.85;;
82396;SDS011;72034;51.426;7.534;2023-12-14T05:26:37;13.27;;;9.15;;
82396;SDS011;72034;51.426;7.534;2023-12-14T05:29:36;13.48;;;9.13;;
82396;SDS011;72034;51.426;7.534;2023-12-14T05:32:04;14.50;;;9.57;;
82396;SDS011;72034;51.426;7.534;2023-12-14T05:34:32;15.02;;;9.73;;
82396;SDS011;72034;51.426;7.534;2023-12-14T05:37:16;18.98;;;10.20;;
82396;SDS011;72034;51.426;7.534;2023-12-14T05:39:43;14.45;;;9.50;;
82396;SDS011;72034;51.426;7.534;2023-12-14T05:42:30;14.43;;;10.02;;
82396;SDS011;72034;51.426;7.534;2023-12-14T05:44:58;13.13;;;8.93;;
82396;SDS011;72034;51.426;7.534;2023-12-14T05:47:32;14.73;;;9.48;;
82396;SDS011;72034;51.426;7.534;2023-12-14T05:50:18;15.40;;;9.45;;
82396;SDS011;72034;51.426;7.534;2023-12-14T05:52:52;13.93;;;9.73;;
82396;SDS011;72034;51.426;7.534;2023-12-14T05:59:00;11.93;;;8.70;;
82396;SDS011;72034;51.426;7.534;2023-12-14T06:01:41;13.70;;;9.35;;
82396;SDS011;72034;51.426;7.534;2023-12-14T06:04:12;15.23;;;9.60;;
82396;SDS011;72034;51.426;7.534;2023-12-14T06:06:50;15.13;;;9.40;;
82396;SDS011;72034;51.426;7.534;2023-12-14T06:09:35;15.80;;;9.35;;
82396;SDS011;72034;51.426;7.534;2023-12-14T06:12:05;12.23;;;8.88;;
82396;SDS011;72034;51.426;7.534;2023-12-14T06:14:41;15.35;;;10.00;;
82396;SDS011;72034;51.426;7.534;2023-12-14T06:17:33;14.30;;;9.77;;
82396;SDS011;72034;51.426;7.534;2023-12-14T06:23:07;13.73;;;10.02;;
82396;SDS011;72034;51.426;7.534;2023-12-14T06:25:39;14.45;;;10.00;;
82396;SDS011;72034;51.426;7.534;2023-12-14T06:28:13;15.90;;;11.02;;
82396;SDS011;72034;51.426;7.534;2023-12-14T06:30:51;16.05;;;10.18;;
82396;SDS011;72034;51.426;7.534;2023-12-14T06:33:40;16.50;;;11.07;;
82396;SDS011;72034;51.426;7.534;2023-12-14T06:36:11;15.75;;;10.50;;
82396;SDS011;72034;51.426;7.534;2023-12-14T06:38:54;18.08;;;11.55;;
82396;SDS011;72034;51.426;7.534;2023-12-14T06:41:23;14.50;;;10.02;;
82396;SDS011;72034;51.426;7.534;2023-12-14T06:44:19;15.82;;;11.07;;
82396;SDS011;72034;51.426;7.534;2023-12-14T06:47:06;17.38;;;10.75;;
82396;SDS011;72034;51.426;7.534;2023-12-14T06:49:46;16.63;;;11.25;;
82396;SDS011;72034;51.426;7.534;2023-12-14T06:52:42;16.27;;;11.52;;
82396;SDS011;72034;51.426;7.534;2023-12-14T06:55:13;19.20;;;12.50;;
82396;SDS011;72034;51.426;7.534;2023-12-14T06:57:44;19.30;;;12.23;;
82396;SDS011;72034;51.426;7.534;2023-12-14T07:00:42;18.80;;;13.27;;
82396;SDS011;72034;51.426;7.534;2023-12-14T07:03:10;23.58;;;14.88;;
82396;SDS011;72034;51.426;7.534;2023-12-14T07:05:58;22.13;;;14.57;;
82396;SDS011;72034;51.426;7.534;2023-12-14T07:08:43;21.42;;;13.35;;
82396;SDS011;72034;51.426;7.534;2023-12-14T07:11:21;26.53;;;13.93;;
82396;SDS011;72034;51.426;7.534;2023-12-14T07:13:49;21.08;;;14.50;;
82396;SDS011;72034;51.426;7.534;2023-12-14T07:19:37;21.70;;;14.15;;
82396;SDS011;72034;51.426;7.534;2023-12-14T07:22:16;21.30;;;15.93;;
82396;SDS011;72034;51.426;7.534;2023-12-14T07:25:05;23.25;;;16.98;;
82396;SDS011;72034;51.426;7.534;2023-12-14T07:28:19;26.20;;;16.65;;
82396;SDS011;72034;51.426;7.534;2023-12-14T07:30:55;29.65;;;17.70;;
82396;SDS011;72034;51.426;7.534;2023-12-14T07:33:28;27.42;;;19.45;;
82396;SDS011;72034;51.426;7.534;2023-12-14T07:36:17;25.40;;;17.92;;
82396;SDS011;72034;51.426;7.534;2023-12-14T07:38:59;25.42;;;18.23;;
82396;SDS011;72034;51.426;7.534;2023-12-14T07:41:34;26.38;;;18.65;;
82396;SDS011;72034;51.426;7.534;2023-12-14T07:44:08;26.10;;;18.55;;
82396;SDS011;72034;51.426;7.534;2023-12-14T07:46:52;25.73;;;18.57;;
82396;SDS011;72034;51.426;7.534;2023-12-14T07:49:30;24.80;;;18.25;;
82396;SDS011;72034;51.426;7.534;2023-12-14T07:52:16;25.98;;;18.33;;
82396;SDS011;72034;51.426;7.534;2023-12-14T07:55:02;24.53;;;16.80;;
82396;SDS011;72034;51.426;7.534;2023-12-14T07:57:41;20.50;;;16.13;;
82396;SDS011;72034;51.426;7.534;2023-12-14T08:03:05;19.52;;;15.15;;
82396;SDS011;72034;51.426;7.534;2023-12-14T08:05:51;24.73;;;15.93;;
82396;SDS011;72034;51.426;7.534;2023-12-14T08:11:26;24.63;;;18.02;;
82396;SDS011;72034;51.426;7.534;2023-12-14T08:14:09;25.60;;;18.48;;
82396;SDS011;72034;51.426;7.534;2023-12-14T08:20:38;31.88;;;20.52;;
82396;SDS011;72034;51.426;7.534;2023-12-14T08:26:06;35.07;;;22.83;;
82396;SDS011;72034;51.426;7.534;2023-12-14T08:28:40;33.17;;;22.63;;
82396;SDS011;72034;51.426;7.534;2023-12-14T08:31:24;33.47;;;20.63;;
82396;SDS011;72034;51.426;7.534;2023-12-14T08:34:24;31.08;;;20.23;;
82396;SDS011;72034;51.426;7.534;2023-12-14T08:37:02;28.02;;;20.35;;
82396;SDS011;72034;51.426;7.534;2023-12-14T08:39:27;30.50;;;19.75;;
82396;SDS011;72034;51.426;7.534;2023-12-14T08:42:25;47.50;;;31.70;;
82396;SDS011;72034;51.426;7.534;2023-12-14T08:45:09;51.80;;;32.43;;
82396;SDS011;72034;51.426;7.534;2023-12-14T08:47:43;44.50;;;27.42;;
82396;SDS011;72034;51.426;7.534;2023-12-14T08:50:36;52.95;;;30.55;;
82396;SDS011;72034;51.426;7.534;2023-12-14T08:53:10;47.87;;;29.50;;
82396;SDS011;72034;51.426;7.534;2023-12-14T08:55:47;52.80;;;27.95;;
82396;SDS011;72034;51.426;7.534;2023-12-14T08:58:17;45.92;;;25.20;;
82396;SDS011;72034;51.426;7.534;2023-12-14T09:01:09;47.45;;;26.73;;
82396;SDS011;72034;51.426;7.534;2023-12-14T09:04:15;46.30;;;28.48;;
82396;SDS011;72034;51.426;7.534;2023-12-14T09:06:53;54.40;;;29.05;;
82396;SDS011;72034;51.426;7.534;2023-12-14T09:09:31;43.63;;;27.60;;
82396;SDS011;72034;51.426;7.534;2023-12-14T09:12:14;54.55;;;29.65;;
82396;SDS011;72034;51.426;7.534;2023-12-14T09:14:43;44.83;;;26.55;;
82396;SDS011;72034;51.426;7.534;2023-12-14T09:17:17;43.15;;;25.13;;
82396;SDS011;72034;51.426;7.534;2023-12-14T09:22:39;37.75;;;24.13;;
82396;SDS011;72034;51.426;7.534;2023-12-14T09:28:35;36.80;;;23.40;;
82396;SDS011;72034;51.426;7.534;2023-12-14T09:31:06;31.30;;;21.92;;
82396;SDS011;72034;51.426;7.534;2023-12-14T09:33:54;33.55;;;21.98;;
82396;SDS011;72034;51.426;7.534;2023-12-14T09:36:28;32.83;;;21.23;;
82396;SDS011;72034;51.426;7.534;2023-12-14T09:39:46;26.00;;;18.33;;
82396;SDS011;72034;51.426;7.534;2023-12-14T09:48:13;25.70;;;19.98;;
82396;SDS011;72034;51.426;7.534;2023-12-14T09:50:50;27.13;;;19.88;;
82396;SDS011;72034;51.426;7.534;2023-12-14T09:54:01;29.83;;;20.10;;
82396;SDS011;72034;51.426;7.534;2023-12-14T09:57:04;27.05;;;20.27;;
82396;SDS011;72034;51.426;7.534;2023-12-14T09:59:34;28.08;;;19.63;;
82396;SDS011;72034;51.426;7.534;2023-12-14T10:02:35;30.50;;;21.92;;
82396;SDS011;72034;51.426;7.534;2023-12-14T10:18:46;29.30;;;20.70;;
82396;SDS011;72034;51.426;7.534;2023-12-14T10:21:47;33.83;;;21.48;;
82396;SDS011;72034;51.426;7.534;2023-12-14T10:30:49;28.92;;;19.88;;
82396;SDS011;72034;51.426;7.534;2023-12-14T10:40:52;32.65;;;20.63;;
82396;SDS011;72034;51.426;7.534;2023-12-14T10:56:12;32.38;;;20.90;;
82396;SDS011;72034;51.426;7.534;2023-12-14T10:59:02;33.40;;;20.85;;
82396;SDS011;72034;51.426;7.534;2023-12-14T11:01:38;34.58;;;21.50;;
82396;SDS011;72034;51.426;7.534;2023-12-14T11:04:45;33.80;;;23.05;;
82396;SDS011;72034;51.426;7.534;2023-12-14T11:07:55;30.08;;;20.48;;
82396;SDS011;72034;51.426;7.534;2023-12-14T11:14:18;29.85;;;20.88;;
82396;SDS011;72034;51.426;7.534;2023-12-14T11:17:06;31.17;;;20.38;;
82396;SDS011;72034;51.426;7.534;2023-12-14T11:20:26;28.60;;;19.02;;
82396;SDS011;72034;51.426;7.534;2023-12-14T11:26:21;28.20;;;17.88;;
82396;SDS011;72034;51.426;7.534;2023-12-14T11:28:55;24.45;;;17.42;;
82396;SDS011;72034;51.426;7.534;2023-12-14T11:31:24;33.08;;;19.67;;
82396;SDS011;72034;51.426;7.534;2023-12-14T11:33:54;30.33;;;19.70;;
82396;SDS011;72034;51.426;7.534;2023-12-14T11:36:29;28.42;;;19.77;;
82396;SDS011;72034;51.426;7.534;2023-12-14T11:39:10;28.83;;;19.35;;
82396;SDS011;72034;51.426;7.534;2023-12-14T11:41:39;28.25;;;19.70;;
82396;SDS011;72034;51.426;7.534;2023-12-14T11:44:21;29.73;;;18.95;;
82396;SDS011;72034;51.426;7.534;2023-12-14T11:47:45;26.25;;;18.08;;
82396;SDS011;72034;51.426;7.534;2023-12-14T11:50:41;29.85;;;17.88;;
82396;SDS011;72034;51.426;7.534;2023-12-14T11:57:04;25.58;;;16.77;;
82396;SDS011;72034;51.426;7.534;2023-12-14T12:00:11;27.17;;;18.45;;
82396;SDS011;72034;51.426;7.534;2023-12-14T12:03:24;27.20;;;19.70;;
82396;SDS011;72034;51.426;7.534;2023-12-14T12:06:22;26.33;;;18.48;;
82396;SDS011;72034;51.426;7.534;2023-12-14T12:09:00;25.98;;;18.58;;
82396;SDS011;72034;51.426;7.534;2023-12-14T12:11:33;28.33;;;19.67;;
82396;SDS011;72034;51.426;7.534;2023-12-14T12:14:13;35.57;;;26.80;;
82396;SDS011;72034;51.426;7.534;2023-12-14T12:17:13;34.50;;;21.95;;
82396;SDS011;72034;51.426;7.534;2023-12-14T12:20:06;31.33;;;20.42;;
82396;SDS011;72034;51.426;7.534;2023-12-14T12:22:38;32.38;;;20.83;;
82396;SDS011;72034;51.426;7.534;2023-12-14T12:25:25;29.30;;;19.40;;
82396;SDS011;72034;51.426;7.534;2023-12-14T12:28:15;33.63;;;22.70;;
82396;SDS011;72034;51.426;7.534;2023-12-14T12:30:46;33.17;;;21.50;;
82396;SDS011;72034;51.426;7.534;2023-12-14T12:33:17;40.67;;;21.43;;
82396;SDS011;72034;51.426;7.534;2023-12-14T12:35:53;30.60;;;19.07;;
82396;SDS011;72034;51.426;7.534;2023-12-14T12:38:32;36.95;;;22.67;;
82396;SDS011;72034;51.426;7.534;2023-12-14T12:41:16;30.77;;;21.10;;
82396;SDS011;72034;51.426;7.534;2023-12-14T12:43:45;34.63;;;20.83;;
82396;SDS011;72034;51.426;7.534;2023-12-14T12:46:22;28.50;;;21.00;;
82396;SDS011;72034;51.426;7.534;2023-12-14T12:48:55;31.55;;;22.00;;
82396;SDS011;72034;51.426;7.534;2023-12-14T12:51:24;30.50;;;21.58;;
82396;SDS011;72034;51.426;7.534;2023-12-14T12:53:54;31.00;;;21.00;;
82396;SDS011;72034;51.426;7.534;2023-12-14T12:56:40;32.95;;;22.00;;
82396;SDS011;72034;51.426;7.534;2023-12-14T12:59:10;33.97;;;24.40;;
82396;SDS011;72034;51.426;7.534;2023-12-14T13:01:46;31.52;;;21.77;;
82396;SDS011;72034;51.426;7.534;2023-12-14T13:04:21;32.33;;;21.63;;
82396;SDS011;72034;51.426;7.534;2023-12-14T13:06:58;32.60;;;22.40;;
82396;SDS011;72034;51.426;7.534;2023-12-14T13:09:43;32.73;;;22.33;;
82396;SDS011;72034;51.426;7.534;2023-12-14T13:12:42;36.30;;;24.02;;
82396;SDS011;72034;51.426;7.534;2023-12-14T13:25:28;36.47;;;22.80;;
82396;SDS011;72034;51.426;7.534;2023-12-14T13:28:09;37.93;;;24.83;;
82396;SDS011;72034;51.426;7.534;2023-12-14T13:31:14;39.13;;;25.13;;
82396;SDS011;72034;51.426;7.534;2023-12-14T13:33:49;38.30;;;25.37;;
82396;SDS011;72034;51.426;7.534;2023-12-14T13:36:29;39.70;;;26.10;;
82396;SDS011;72034;51.426;7.534;2023-12-14T13:42:17;40.13;;;25.70;;
82396;SDS011;72034;51.426;7.534;2023-12-14T13:44:55;40.28;;;25.73;;
82396;SDS011;72034;51.426;7.534;2023-12-14T13:48:01;39.20;;;24.50;;
82396;SDS011;72034;51.426;7.534;2023-12-14T13:54:03;36.38;;;24.85;;
82396;SDS011;72034;51.426;7.534;2023-12-14T13:56:51;35.80;;;23.67;;
82396;SDS011;72034;51.426;7.534;2023-12-14T13:59:35;37.20;;;23.97;;
82396;SDS011;72034;51.426;7.534;2023-12-14T14:02:20;37.87;;;24.00;;
82396;SDS011;72034;51.426;7.534;2023-12-14T14:05:11;38.50;;;24.80;;
82396;SDS011;72034;51.426;7.534;2023-12-14T14:07:44;39.70;;;23.13;;
82396;SDS011;72034;51.426;7.534;2023-12-14T14:10:55;36.83;;;22.37;;
82396;SDS011;72034;51.426;7.534;2023-12-14T14:13:27;36.67;;;22.90;;
82396;SDS011;72034;51.426;7.534;2023-12-14T14:16:17;34.87;;;22.70;;
82396;SDS011;72034;51.426;7.534;2023-12-14T14:19:02;33.10;;;22.70;;
82396;SDS011;72034;51.426;7.534;2023-12-14T14:21:33;38.00;;;21.93;;
82396;SDS011;72034;51.426;7.534;2023-12-14T14:24:10;31.03;;;20.57;;
82396;SDS011;72034;51.426;7.534;2023-12-14T14:26:38;29.77;;;18.90;;
82396;SDS011;72034;51.426;7.534;2023-12-14T14:29:32;30.67;;;19.23;;
82396;SDS011;72034;51.426;7.534;2023-12-14T14:32:04;26.13;;;16.85;;
82396;SDS011;72034;51.426;7.534;2023-12-14T14:34:47;33.43;;;19.30;;
82396;SDS011;72034;51.426;7.534;2023-12-14T14:37:23;22.80;;;17.10;;
82396;SDS011;72034;51.426;7.534;2023-12-14T14:40:43;29.07;;;17.27;;
82396;SDS011;72034;51.426;7.534;2023-12-14T14:43:16;26.37;;;17.47;;
82396;SDS011;72034;51.426;7.534;2023-12-14T14:46:10;22.57;;;15.73;;
82396;SDS011;72034;51.426;7.534;2023-12-14T14:48:49;24.50;;;15.33;;
82396;SDS011;72034;51.426;7.534;2023-12-14T14:51:34;20.00;;;13.97;;
82396;SDS011;72034;51.426;7.534;2023-12-14T14:54:25;19.02;;;13.80;;
82396;SDS011;72034;51.426;7.534;2023-12-14T14:56:58;20.38;;;13.80;;
82396;SDS011;72034;51.426;7.534;2023-12-14T14:59:39;21.83;;;13.40;;
82396;SDS011;72034;51.426;7.534;2023-12-14T15:02:28;20.13;;;14.77;;
82396;SDS011;72034;51.426;7.534;2023-12-14T15:04:59;19.38;;;13.05;;
82396;SDS011;72034;51.426;7.534;2023-12-14T15:07:33;18.75;;;13.80;;
82396;SDS011;72034;51.426;7.534;2023-12-14T15:10:18;17.97;;;12.97;;
82396;SDS011;72034;51.426;7.534;2023-12-14T15:12:46;17.23;;;13.03;;
82396;SDS011;72034;51.426;7.534;2023-12-14T15:15:19;17.13;;;13.32;;
82396;SDS011;72034;51.426;7.534;2023-12-14T15:17:50;20.60;;;14.40;;
82396;SDS011;72034;51.426;7.534;2023-12-14T15:20:27;21.87;;;14.17;;
82396;SDS011;72034;51.426;7.534;2023-12-14T15:23:24;19.15;;;14.32;;
82396;SDS011;72034;51.426;7.534;2023-12-14T15:25:55;21.45;;;15.27;;
82396;SDS011;72034;51.426;7.534;2023-12-14T15:28:20;24.00;;;15.20;;
82396;SDS011;72034;51.426;7.534;2023-12-14T15:31:04;21.15;;;14.23;;
82396;SDS011;72034;51.426;7.534;2023-12-14T15:33:33;20.25;;;14.20;;
82396;SDS011;72034;51.426;7.534;2023-12-14T15:36:06;23.52;;;15.82;;
82396;SDS011;72034;51.426;7.534;2023-12-14T15:39:06;20.63;;;15.57;;
82396;SDS011;72034;51.426;7.534;2023-12-14T15:41:52;20.50;;;15.50;;
82396;SDS011;72034;51.426;7.534;2023-12-14T15:44:28;26.08;;;17.48;;
82396;SDS011;72034;51.426;7.534;2023-12-14T15:47:10;22.15;;;15.20;;
82396;SDS011;72034;51.426;7.534;2023-12-14T15:49:41;25.27;;;17.20;;
82396;SDS011;72034;51.426;7.534;2023-12-14T15:52:21;26.20;;;18.10;;
82396;SDS011;72034;51.426;7.534;2023-12-14T15:55:00;22.83;;;16.17;;
82396;SDS011;72034;51.426;7.534;2023-12-14T15:57:29;27.92;;;17.77;;
82396;SDS011;72034;51.426;7.534;2023-12-14T16:00:13;22.23;;;16.75;;
82396;SDS011;72034;51.426;7.534;2023-12-14T16:02:42;22.50;;;16.27;;
82396;SDS011;72034;51.426;7.534;2023-12-14T16:05:25;23.92;;;16.80;;
82396;SDS011;72034;51.426;7.534;2023-12-14T16:08:06;23.48;;;17.30;;
82396;SDS011;72034;51.426;7.534;2023-12-14T16:10:43;22.25;;;16.67;;
82396;SDS011;72034;51.426;7.534;2023-12-14T16:13:16;26.23;;;16.63;;
82396;SDS011;72034;51.426;7.534;2023-12-14T16:15:44;23.00;;;16.45;;
82396;SDS011;72034;51.426;7.534;2023-12-14T16:18:13;24.83;;;18.63;;
82396;SDS011;72034;51.426;7.534;2023-12-14T16:20:45;25.73;;;17.35;;
82396;SDS011;72034;51.426;7.534;2023-12-14T16:23:16;26.57;;;17.73;;
82396;SDS011;72034;51.426;7.534;2023-12-14T16:26:23;31.85;;;19.27;;
82396;SDS011;72034;51.426;7.534;2023-12-14T16:29:07;27.67;;;18.98;;
82396;SDS011;72034;51.426;7.534;2023-12-14T16:31:39;24.73;;;19.23;;
82396;SDS011;72034;51.426;7.534;2023-12-14T16:34:36;28.07;;;19.03;;
82396;SDS011;72034;51.426;7.534;2023-12-14T16:37:11;27.08;;;18.58;;
82396;SDS011;72034;51.426;7.534;2023-12-14T16:39:53;26.27;;;18.92;;
82396;SDS011;72034;51.426;7.534;2023-12-14T16:42:25;29.30;;;19.88;;
82396;SDS011;72034;51.426;7.534;2023-12-14T16:45:08;30.27;;;19.60;;
82396;SDS011;72034;51.426;7.534;2023-12-14T16:47:35;29.17;;;20.33;;
82396;SDS011;72034;51.426;7.534;2023-12-14T16:50:31;27.20;;;20.00;;
82396;SDS011;72034;51.426;7.534;2023-12-14T16:53:03;29.85;;;20.65;;
82396;SDS011;72034;51.426;7.534;2023-12-14T16:55:40;29.60;;;20.30;;
82396;SDS011;72034;51.426;7.534;2023-12-14T16:58:11;30.58;;;20.13;;
82396;SDS011;72034;51.426;7.534;2023-12-14T17:00:59;27.50;;;18.33;;
82396;SDS011;72034;51.426;7.534;2023-12-14T17:03:33;28.27;;;19.13;;
82396;SDS011;72034;51.426;7.534;2023-12-14T17:11:55;33.70;;;18.97;;
82396;SDS011;72034;51.426;7.534;2023-12-14T17:14:47;26.33;;;18.67;;
82396;SDS011;72034;51.426;7.534;2023-12-14T17:17:15;28.57;;;18.13;;
82396;SDS011;72034;51.426;7.534;2023-12-14T17:19:57;30.52;;;18.52;;
82396;SDS011;72034;51.426;7.534;2023-12-14T17:22:29;26.83;;;18.57;;
82396;SDS011;72034;51.426;7.534;2023-12-14T17:25:18;26.63;;;18.55;;
82396;SDS011;72034;51.426;7.534;2023-12-14T17:27:51;23.35;;;16.85;;
82396;SDS011;72034;51.426;7.534;2023-12-14T17:30:27;24.05;;;17.13;;
82396;SDS011;72034;51.426;7.534;2023-12-14T17:32:54;23.38;;;16.85;;
82396;SDS011;72034;51.426;7.534;2023-12-14T17:35:25;26.40;;;17.57;;
82396;SDS011;72034;51.426;7.534;2023-12-14T17:38:21;24.43;;;17.77;;
82396;SDS011;72034;51.426;7.534;2023-12-14T17:41:11;24.90;;;18.27;;
82396;SDS011;72034;51.426;7.534;2023-12-14T17:43:46;31.90;;;18.73;;
82396;SDS011;72034;51.426;7.534;2023-12-14T17:46:14;24.57;;;18.10;;
82396;SDS011;72034;51.426;7.534;2023-12-14T17:48:47;30.43;;;21.10;;
82396;SDS011;72034;51.426;7.534;2023-12-14T17:51:24;28.33;;;20.17;;
82396;SDS011;72034;51.426;7.534;2023-12-14T17:53:54;24.92;;;18.25;;
82396;SDS011;72034;51.426;7.534;2023-12-14T17:56:45;28.13;;;19.10;;
82396;SDS011;72034;51.426;7.534;2023-12-14T17:59:17;29.13;;;19.10;;
82396;SDS011;72034;51.426;7.534;2023-12-14T18:02:08;31.57;;;20.00;;
82396;SDS011;72034;51.426;7.534;2023-12-14T18:04:38;27.23;;;18.97;;
82396;SDS011;72034;51.426;7.534;2023-12-14T18:07:13;31.20;;;20.10;;
82396;SDS011;72034;51.426;7.534;2023-12-14T18:09:56;30.07;;;20.23;;
82396;SDS011;72034;51.426;7.534;2023-12-14T18:12:43;27.07;;;19.83;;
82396;SDS011;72034;51.426;7.534;2023-12-14T18:15:14;29.00;;;19.35;;
82396;SDS011;72034;51.426;7.534;2023-12-14T18:20:52;27.83;;;20.07;;
82396;SDS011;72034;51.426;7.534;2023-12-14T18:23:26;28.15;;;19.73;;
82396;SDS011;72034;51.426;7.534;2023-12-14T18:26:25;25.83;;;18.20;;
82396;SDS011;72034;51.426;7.534;2023-12-14T18:29:15;32.10;;;19.90;;
82396;SDS011;72034;51.426;7.534;2023-12-14T18:31:41;26.53;;;19.13;;
82396;SDS011;72034;51.426;7.534;2023-12-14T18:34:15;31.55;;;21.13;;
82396;SDS011;72034;51.426;7.534;2023-12-14T18:37:07;26.83;;;19.97;;
82396;SDS011;72034;51.426;7.534;2023-12-14T18:39:47;30.43;;;21.53;;
82396;SDS011;72034;51.426;7.534;2023-12-14T18:42:26;34.42;;;21.85;;
82396;SDS011;72034;51.426;7.534;2023-12-14T18:45:04;26.93;;;19.80;;
82396;SDS011;72034;51.426;7.534;2023-12-14T18:47:41;29.27;;;20.57;;
82396;SDS011;72034;51.426;7.534;2023-12-14T18:50:14;31.30;;;20.27;;
82396;SDS011;72034;51.426;7.534;2023-12-14T18:52:47;33.20;;;21.17;;
82396;SDS011;72034;51.426;7.534;2023-12-14T18:55:29;29.03;;;20.33;;
82396;SDS011;72034;51.426;7.534;2023-12-14T18:57:57;26.63;;;19.47;;
82396;SDS011;72034;51.426;7.534;2023-12-14T19:00:43;32.70;;;20.87;;
82396;SDS011;72034;51.426;7.534;2023-12-14T19:03:27;31.57;;;21.20;;
82396;SDS011;72034;51.426;7.534;2023-12-14T19:06:02;28.93;;;19.13;;
82396;SDS011;72034;51.426;7.534;2023-12-14T19:08:41;25.23;;;19.27;;
82396;SDS011;72034;51.426;7.534;2023-12-14T19:11:27;28.80;;;20.45;;
82396;SDS011;72034;51.426;7.534;2023-12-14T19:13:57;38.97;;;26.70;;
82396;SDS011;72034;51.426;7.534;2023-12-14T19:16:58;32.37;;;24.27;;
82396;SDS011;72034;51.426;7.534;2023-12-14T19:19:24;28.70;;;20.17;;
82396;SDS011;72034;51.426;7.534;2023-12-14T19:21:57;27.53;;;20.30;;
82396;SDS011;72034;51.426;7.534;2023-12-14T19:24:40;30.00;;;22.03;;
82396;SDS011;72034;51.426;7.534;2023-12-14T19:30:17;31.70;;;22.40;;
82396;SDS011;72034;51.426;7.534;2023-12-14T19:32:43;46.37;;;30.13;;
82396;SDS011;72034;51.426;7.534;2023-12-14T19:35:22;36.07;;;25.77;;
82396;SDS011;72034;51.426;7.534;2023-12-14T19:38:11;32.67;;;21.83;;
82396;SDS011;72034;51.426;7.534;2023-12-14T19:41:03;28.50;;;20.27;;
82396;SDS011;72034;51.426;7.534;2023-12-14T19:47:53;27.40;;;17.80;;
82396;SDS011;72034;51.426;7.534;2023-12-14T19:50:43;27.00;;;16.77;;
82396;SDS011;72034;51.426;7.534;2023-12-14T19:53:14;24.17;;;16.83;;
82396;SDS011;72034;51.426;7.534;2023-12-14T19:56:00;30.70;;;18.97;;
82396;SDS011;72034;51.426;7.534;2023-12-14T20:01:13;28.23;;;19.00;;
82396;SDS011;72034;51.426;7.534;2023-12-14T20:04:11;27.23;;;17.73;;
82396;SDS011;72034;51.426;7.534;2023-12-14T20:06:57;23.07;;;16.53;;
82396;SDS011;72034;51.426;7.534;2023-12-14T20:09:44;23.13;;;16.00;;
82396;SDS011;72034;51.426;7.534;2023-12-14T20:12:34;24.93;;;17.13;;
82396;SDS011;72034;51.426;7.534;2023-12-14T20:21:40;33.70;;;19.40;;
82396;SDS011;72034;51.426;7.534;2023-12-14T20:31:00;33.93;;;22.60;;
82396;SDS011;72034;51.426;7.534;2023-12-14T20:33:46;36.93;;;24.10;;
82396;SDS011;72034;51.426;7.534;2023-12-14T20:36:21;35.47;;;22.70;;
82396;SDS011;72034;51.426;7.534;2023-12-14T20:38:56;31.97;;;22.03;;
82396;SDS011;72034;51.426;7.534;2023-12-14T20:41:39;35.03;;;22.73;;
82396;SDS011;72034;51.426;7.534;2023-12-14T20:44:19;28.97;;;19.80;;
82396;SDS011;72034;51.426;7.534;2023-12-14T20:46:54;27.67;;;19.97;;
82396;SDS011;72034;51.426;7.534;2023-12-14T20:49:57;30.87;;;19.67;;
82396;SDS011;72034;51.426;7.534;2023-12-14T20:52:31;33.67;;;19.40;;
82396;SDS011;72034;51.426;7.534;2023-12-14T20:55:06;29.07;;;19.07;;
82396;SDS011;72034;51.426;7.534;2023-12-14T20:58:04;34.70;;;20.60;;
82396;SDS011;72034;51.426;7.534;2023-12-14T21:00:48;26.73;;;19.13;;
82396;SDS011;72034;51.426;7.534;2023-12-14T21:06:07;30.63;;;18.73;;
82396;SDS011;72034;51.426;7.534;2023-12-14T21:08:36;30.73;;;19.23;;
82396;SDS011;72034;51.426;7.534;2023-12-14T21:11:09;33.67;;;20.63;;
82396;SDS011;72034;51.426;7.534;2023-12-14T21:14:03;32.23;;;19.97;;
82396;SDS011;72034;51.426;7.534;2023-12-14T21:16:58;34.33;;;20.87;;
82396;SDS011;72034;51.426;7.534;2023-12-14T21:19:33;33.73;;;20.90;;
82396;SDS011;72034;51.426;7.534;2023-12-14T21:22:30;32.10;;;20.63;;
82396;SDS011;72034;51.426;7.534;2023-12-14T21:25:04;35.70;;;20.93;;
82396;SDS011;72034;51.426;7.534;2023-12-14T21:27:49;31.47;;;19.77;;
82396;SDS011;72034;51.426;7.534;2023-12-14T21:30:39;33.40;;;20.10;;
82396;SDS011;72034;51.426;7.534;2023-12-14T21:33:11;30.77;;;20.50;;
82396;SDS011;72034;51.426;7.534;2023-12-14T21:35:40;32.57;;;20.50;;
82396;SDS011;72034;51.426;7.534;2023-12-14T21:38:12;35.13;;;20.67;;
82396;SDS011;72034;51.426;7.534;2023-12-14T21:43:25;31.87;;;20.37;;
82396;SDS011;72034;51.426;7.534;2023-12-14T21:45:58;34.87;;;22.07;;
82396;SDS011;72034;51.426;7.534;2023-12-14T21:51:27;40.17;;;22.93;;
82396;SDS011;72034;51.426;7.534;2023-12-14T21:53:59;35.47;;;22.47;;
82396;SDS011;72034;51.426;7.534;2023-12-14T21:56:45;37.37;;;23.37;;
82396;SDS011;72034;51.426;7.534;2023-12-14T21:59:23;37.73;;;24.60;;
82396;SDS011;72034;51.426;7.534;2023-12-14T22:04:55;41.80;;;25.17;;
82396;SDS011;72034;51.426;7.534;2023-12-14T22:07:38;43.73;;;26.17;;
82396;SDS011;72034;51.426;7.534;2023-12-14T22:10:19;36.93;;;23.60;;
82396;SDS011;72034;51.426;7.534;2023-12-14T22:12:59;42.73;;;26.53;;
82396;SDS011;72034;51.426;7.534;2023-12-14T22:15:34;44.13;;;25.63;;
82396;SDS011;72034;51.426;7.534;2023-12-14T22:24:37;47.80;;;27.33;;
82396;SDS011;72034;51.426;7.534;2023-12-14T22:27:16;53.07;;;30.90;;
82396;SDS011;72034;51.426;7.534;2023-12-14T22:36:20;62.17;;;38.40;;
82396;SDS011;72034;51.426;7.534;2023-12-14T22:42:17;48.60;;;28.67;;
82396;SDS011;72034;51.426;7.534;2023-12-14T22:44:51;48.63;;;28.47;;
82396;SDS011;72034;51.426;7.534;2023-12-14T22:53:39;47.37;;;28.17;;
